sensor_id;sensor_type;location;lat;lon;timestamp;temperature;humidity
31991;DHT22;18508;49.386;8.370;2022-10-24T00:00:12;14.60;99.90
31991;DHT22;18508;49.386;8.370;2022-10-24T00:02:47;14.20;99.90
31991;DHT22;18508;49.386;8.370;2022-10-24T00:05:17;14.50;99.90
31991;DHT22;18508;49.386;8.370;2022-10-24T00:07:55;14.50;99.90
31991;DHT22;18508;49.386;8.370;2022-10-24T00:10:29;14.50;99.90
31991;DHT22;18508;49.386;8.370;2022-10-24T00:13:01;14.70;99.90
31991;DHT22;18508;49.386;8.370;2022-10-24T00:15:44;14.20;99.90
31991;DHT22;18508;49.386;8.370;2022-10-24T00:18:25;14.40;99.90
31991;DHT22;18508;49.386;8.370;2022-10-24T00:20:54;14.30;99.90
31991;DHT22;18508;49.386;8.370;2022-10-24T00:23:30;15.10;99.90
31991;DHT22;18508;49.386;8.370;2022-10-24T00:26:02;14.80;99.90
31991;DHT22;18508;49.386;8.370;2022-10-24T00:28:38;14.40;99.90
31991;DHT22;18508;49.386;8.370;2022-10-24T00:31:13;14.50;99.90
31991;DHT22;18508;49.386;8.370;2022-10-24T00:34:17;14.20;99.90
31991;DHT22;18508;49.386;8.370;2022-10-24T00:36:49;14.40;99.90
31991;DHT22;18508;49.386;8.370;2022-10-24T00:39:36;13.70;99.90
31991;DHT22;18508;49.386;8.370;2022-10-24T00:42:07;14.40;99.90
31991;DHT22;18508;49.386;8.370;2022-10-24T00:44:39;14.30;99.90
31991;DHT22;18508;49.386;8.370;2022-10-24T00:47:14;14.30;99.90
31991;DHT22;18508;49.386;8.370;2022-10-24T00:49:50;14.30;99.90
31991;DHT22;18508;49.386;8.370;2022-10-24T00:52:34;14.30;99.90
31991;DHT22;18508;49.386;8.370;2022-10-24T00:55:10;14.30;99.90
31991;DHT22;18508;49.386;8.370;2022-10-24T00:57:59;13.90;99.90
31991;DHT22;18508;49.386;8.370;2022-10-24T01:00:48;14.20;99.90
31991;DHT22;18508;49.386;8.370;2022-10-24T01:03:34;14.20;99.90
31991;DHT22;18508;49.386;8.370;2022-10-24T01:06:40;14.00;99.90
31991;DHT22;18508;49.386;8.370;2022-10-24T01:09:28;14.00;99.90
31991;DHT22;18508;49.386;8.370;2022-10-24T01:12:24;14.30;99.90
31991;DHT22;18508;49.386;8.370;2022-10-24T01:15:07;13.40;99.90
31991;DHT22;18508;49.386;8.370;2022-10-24T01:17:47;14.10;99.90
31991;DHT22;18508;49.386;8.370;2022-10-24T01:20:44;13.80;99.90
31991;DHT22;18508;49.386;8.370;2022-10-24T01:23:41;14.10;99.90
31991;DHT22;18508;49.386;8.370;2022-10-24T01:26:45;14.10;99.90
31991;DHT22;18508;49.386;8.370;2022-10-24T01:30:02;14.10;99.90
31991;DHT22;18508;49.386;8.370;2022-10-24T01:32:43;13.70;99.90
31991;DHT22;18508;49.386;8.370;2022-10-24T01:35:24;14.10;99.90
31991;DHT22;18508;49.386;8.370;2022-10-24T01:38:16;14.10;99.90
31991;DHT22;18508;49.386;8.370;2022-10-24T01:41:16;14.10;99.90
31991;DHT22;18508;49.386;8.370;2022-10-24T01:44:06;14.20;99.90
31991;DHT22;18508;49.386;8.370;2022-10-24T01:46:54;14.30;99.90
31991;DHT22;18508;49.386;8.370;2022-10-24T01:49:29;14.30;99.90
31991;DHT22;18508;49.386;8.370;2022-10-24T01:52:05;14.40;99.90
31991;DHT22;18508;49.386;8.370;2022-10-24T01:54:47;14.10;99.90
31991;DHT22;18508;49.386;8.370;2022-10-24T01:57:23;14.30;99.90
31991;DHT22;18508;49.386;8.370;2022-10-24T02:00:13;14.60;99.90
31991;DHT22;18508;49.386;8.370;2022-10-24T02:02:53;14.40;99.90
31991;DHT22;18508;49.386;8.370;2022-10-24T02:05:33;14.50;99.90
31991;DHT22;18508;49.386;8.370;2022-10-24T02:08:18;14.50;99.90
31991;DHT22;18508;49.386;8.370;2022-10-24T02:10:59;14.40;99.90
31991;DHT22;18508;49.386;8.370;2022-10-24T02:13:39;14.60;99.90
31991;DHT22;18508;49.386;8.370;2022-10-24T02:16:26;14.70;99.90
31991;DHT22;18508;49.386;8.370;2022-10-24T02:19:08;14.90;99.90
31991;DHT22;18508;49.386;8.370;2022-10-24T02:22:02;14.80;99.90
31991;DHT22;18508;49.386;8.370;2022-10-24T02:24:49;14.50;99.90
31991;DHT22;18508;49.386;8.370;2022-10-24T02:27:22;14.90;99.90
31991;DHT22;18508;49.386;8.370;2022-10-24T02:30:04;14.90;99.90
31991;DHT22;18508;49.386;8.370;2022-10-24T02:32:40;14.80;99.90
31991;DHT22;18508;49.386;8.370;2022-10-24T02:35:22;15.00;99.90
31991;DHT22;18508;49.386;8.370;2022-10-24T02:37:59;14.80;99.90
31991;DHT22;18508;49.386;8.370;2022-10-24T02:40:33;14.80;99.90
31991;DHT22;18508;49.386;8.370;2022-10-24T02:43:09;14.80;99.90
31991;DHT22;18508;49.386;8.370;2022-10-24T02:45:44;14.90;99.90
31991;DHT22;18508;49.386;8.370;2022-10-24T02:48:22;14.80;99.90
31991;DHT22;18508;49.386;8.370;2022-10-24T02:51:00;14.90;99.90
31991;DHT22;18508;49.386;8.370;2022-10-24T02:53:29;14.90;99.90
31991;DHT22;18508;49.386;8.370;2022-10-24T02:56:01;14.90;99.90
31991;DHT22;18508;49.386;8.370;2022-10-24T02:58:35;15.00;99.90
31991;DHT22;18508;49.386;8.370;2022-10-24T03:01:17;15.00;99.90
31991;DHT22;18508;49.386;8.370;2022-10-24T03:03:57;15.10;99.90
31991;DHT22;18508;49.386;8.370;2022-10-24T03:06:36;14.80;99.90
31991;DHT22;18508;49.386;8.370;2022-10-24T03:09:15;15.10;99.90
31991;DHT22;18508;49.386;8.370;2022-10-24T03:11:52;15.20;99.90
31991;DHT22;18508;49.386;8.370;2022-10-24T03:14:25;15.00;99.90
31991;DHT22;18508;49.386;8.370;2022-10-24T03:17:03;15.30;99.90
31991;DHT22;18508;49.386;8.370;2022-10-24T03:19:39;15.00;99.90
31991;DHT22;18508;49.386;8.370;2022-10-24T03:22:13;15.10;99.90
31991;DHT22;18508;49.386;8.370;2022-10-24T03:24:43;15.10;99.90
31991;DHT22;18508;49.386;8.370;2022-10-24T03:27:25;15.20;99.90
31991;DHT22;18508;49.386;8.370;2022-10-24T03:29:55;15.10;99.90
31991;DHT22;18508;49.386;8.370;2022-10-24T03:32:25;15.20;99.90
31991;DHT22;18508;49.386;8.370;2022-10-24T03:35:02;14.90;99.90
31991;DHT22;18508;49.386;8.370;2022-10-24T03:37:36;15.20;99.90
31991;DHT22;18508;49.386;8.370;2022-10-24T03:40:06;15.30;99.90
31991;DHT22;18508;49.386;8.370;2022-10-24T03:42:36;15.30;99.90
31991;DHT22;18508;49.386;8.370;2022-10-24T03:45:16;15.30;99.90
31991;DHT22;18508;49.386;8.370;2022-10-24T03:47:44;15.40;99.90
31991;DHT22;18508;49.386;8.370;2022-10-24T03:50:23;15.30;99.90
31991;DHT22;18508;49.386;8.370;2022-10-24T03:53:11;16.00;99.90
31991;DHT22;18508;49.386;8.370;2022-10-24T03:55:53;15.60;99.90
31991;DHT22;18508;49.386;8.370;2022-10-24T03:58:40;15.60;99.90
31991;DHT22;18508;49.386;8.370;2022-10-24T04:01:14;15.60;99.90
31991;DHT22;18508;49.386;8.370;2022-10-24T04:03:49;15.70;99.90
31991;DHT22;18508;49.386;8.370;2022-10-24T04:06:23;15.80;99.90
31991;DHT22;18508;49.386;8.370;2022-10-24T04:09:11;15.80;99.90
31991;DHT22;18508;49.386;8.370;2022-10-24T04:11:42;15.90;99.90
31991;DHT22;18508;49.386;8.370;2022-10-24T04:14:20;15.70;99.90
31991;DHT22;18508;49.386;8.370;2022-10-24T04:16:53;16.00;99.90
31991;DHT22;18508;49.386;8.370;2022-10-24T04:19:27;15.80;99.90
31991;DHT22;18508;49.386;8.370;2022-10-24T04:21:56;15.50;99.90
31991;DHT22;18508;49.386;8.370;2022-10-24T04:24:38;15.80;99.90
31991;DHT22;18508;49.386;8.370;2022-10-24T04:27:12;16.20;99.90
31991;DHT22;18508;49.386;8.370;2022-10-24T04:29:41;12.90;99.90
31991;DHT22;18508;49.386;8.370;2022-10-24T04:32:11;15.90;99.90
31991;DHT22;18508;49.386;8.370;2022-10-24T04:34:42;15.80;99.90
31991;DHT22;18508;49.386;8.370;2022-10-24T04:37:12;15.80;99.90
31991;DHT22;18508;49.386;8.370;2022-10-24T04:39:46;15.70;99.90
31991;DHT22;18508;49.386;8.370;2022-10-24T04:42:16;15.70;99.90
31991;DHT22;18508;49.386;8.370;2022-10-24T04:44:47;15.70;99.90
31991;DHT22;18508;49.386;8.370;2022-10-24T04:47:17;15.60;99.90
31991;DHT22;18508;49.386;8.370;2022-10-24T04:49:54;15.60;99.90
31991;DHT22;18508;49.386;8.370;2022-10-24T04:52:23;15.50;99.90
31991;DHT22;18508;49.386;8.370;2022-10-24T04:54:59;15.80;99.90
31991;DHT22;18508;49.386;8.370;2022-10-24T04:57:30;15.40;99.90
31991;DHT22;18508;49.386;8.370;2022-10-24T05:00:04;15.40;99.90
31991;DHT22;18508;49.386;8.370;2022-10-24T05:02:37;15.50;99.90
31991;DHT22;18508;49.386;8.370;2022-10-24T05:05:10;14.90;99.90
31991;DHT22;18508;49.386;8.370;2022-10-24T05:07:42;16.70;99.90
31991;DHT22;18508;49.386;8.370;2022-10-24T05:10:27;15.10;99.90
31991;DHT22;18508;49.386;8.370;2022-10-24T05:15:37;15.00;99.90
31991;DHT22;18508;49.386;8.370;2022-10-24T05:18:09;15.20;99.90
31991;DHT22;18508;49.386;8.370;2022-10-24T05:23:17;14.90;99.90
31991;DHT22;18508;49.386;8.370;2022-10-24T05:25:55;14.80;99.90
31991;DHT22;18508;49.386;8.370;2022-10-24T05:28:32;14.80;99.90
31991;DHT22;18508;49.386;8.370;2022-10-24T05:31:07;15.90;99.90
31991;DHT22;18508;49.386;8.370;2022-10-24T05:36:17;14.90;99.90
31991;DHT22;18508;49.386;8.370;2022-10-24T05:38:51;15.10;99.90
31991;DHT22;18508;49.386;8.370;2022-10-24T05:41:26;15.10;99.90
31991;DHT22;18508;49.386;8.370;2022-10-24T05:43:56;15.20;99.90
31991;DHT22;18508;49.386;8.370;2022-10-24T05:46:28;15.30;99.90
31991;DHT22;18508;49.386;8.370;2022-10-24T05:48:58;15.50;99.90
31991;DHT22;18508;49.386;8.370;2022-10-24T05:51:40;16.10;99.90
31991;DHT22;18508;49.386;8.370;2022-10-24T05:56:46;15.60;99.90
31991;DHT22;18508;49.386;8.370;2022-10-24T05:59:22;16.00;99.90
31991;DHT22;18508;49.386;8.370;2022-10-24T06:01:57;15.60;99.90
31991;DHT22;18508;49.386;8.370;2022-10-24T06:12:11;16.10;99.90
31991;DHT22;18508;49.386;8.370;2022-10-24T06:14:55;15.90;99.90
31991;DHT22;18508;49.386;8.370;2022-10-24T06:17:25;15.90;99.90
31991;DHT22;18508;49.386;8.370;2022-10-24T06:19:55;15.90;99.90
31991;DHT22;18508;49.386;8.370;2022-10-24T06:22:32;15.90;99.90
31991;DHT22;18508;49.386;8.370;2022-10-24T06:25:02;15.90;99.90
31991;DHT22;18508;49.386;8.370;2022-10-24T06:27:34;16.00;99.90
31991;DHT22;18508;49.386;8.370;2022-10-24T06:30:04;15.60;99.90
31991;DHT22;18508;49.386;8.370;2022-10-24T06:32:35;16.00;99.90
31991;DHT22;18508;49.386;8.370;2022-10-24T06:35:08;16.00;99.90
31991;DHT22;18508;49.386;8.370;2022-10-24T06:37:40;16.00;99.90
31991;DHT22;18508;49.386;8.370;2022-10-24T06:40:13;16.00;99.90
31991;DHT22;18508;49.386;8.370;2022-10-24T06:42:46;16.00;99.90
31991;DHT22;18508;49.386;8.370;2022-10-24T06:45:14;16.00;99.90
31991;DHT22;18508;49.386;8.370;2022-10-24T06:47:44;16.00;99.90
31991;DHT22;18508;49.386;8.370;2022-10-24T06:50:20;16.00;99.90
31991;DHT22;18508;49.386;8.370;2022-10-24T06:52:48;16.00;99.90
31991;DHT22;18508;49.386;8.370;2022-10-24T06:55:17;16.00;99.90
31991;DHT22;18508;49.386;8.370;2022-10-24T06:57:48;16.00;99.90
31991;DHT22;18508;49.386;8.370;2022-10-24T07:00:16;16.00;99.90
31991;DHT22;18508;49.386;8.370;2022-10-24T07:02:44;16.00;99.90
31991;DHT22;18508;49.386;8.370;2022-10-24T07:05:14;16.00;99.90
31991;DHT22;18508;49.386;8.370;2022-10-24T07:07:42;16.00;99.90
31991;DHT22;18508;49.386;8.370;2022-10-24T07:10:13;16.00;99.90
31991;DHT22;18508;49.386;8.370;2022-10-24T07:12:42;16.00;99.90
31991;DHT22;18508;49.386;8.370;2022-10-24T07:15:12;16.10;99.90
31991;DHT22;18508;49.386;8.370;2022-10-24T07:17:42;16.10;99.90
31991;DHT22;18508;49.386;8.370;2022-10-24T07:20:12;16.10;99.90
31991;DHT22;18508;49.386;8.370;2022-10-24T07:22:42;16.10;99.90
31991;DHT22;18508;49.386;8.370;2022-10-24T07:25:12;16.10;99.90
31991;DHT22;18508;49.386;8.370;2022-10-24T07:27:47;15.60;99.90
31991;DHT22;18508;49.386;8.370;2022-10-24T07:30:28;16.20;99.90
31991;DHT22;18508;49.386;8.370;2022-10-24T07:32:57;16.60;99.90
31991;DHT22;18508;49.386;8.370;2022-10-24T07:35:25;16.20;99.90
31991;DHT22;18508;49.386;8.370;2022-10-24T07:37:54;16.20;99.90
31991;DHT22;18508;49.386;8.370;2022-10-24T07:40:22;16.20;99.90
31991;DHT22;18508;49.386;8.370;2022-10-24T07:42:56;16.30;99.90
31991;DHT22;18508;49.386;8.370;2022-10-24T07:45:25;16.30;99.90
31991;DHT22;18508;49.386;8.370;2022-10-24T07:47:55;16.30;99.90
31991;DHT22;18508;49.386;8.370;2022-10-24T07:50:25;16.30;99.90
31991;DHT22;18508;49.386;8.370;2022-10-24T07:52:55;16.40;99.90
31991;DHT22;18508;49.386;8.370;2022-10-24T07:55:23;16.40;99.90
31991;DHT22;18508;49.386;8.370;2022-10-24T07:57:51;16.60;99.90
31991;DHT22;18508;49.386;8.370;2022-10-24T08:00:26;16.50;99.90
31991;DHT22;18508;49.386;8.370;2022-10-24T08:02:54;16.50;99.90
31991;DHT22;18508;49.386;8.370;2022-10-24T08:05:23;16.10;99.90
31991;DHT22;18508;49.386;8.370;2022-10-24T08:07:55;16.40;99.90
31991;DHT22;18508;49.386;8.370;2022-10-24T08:10:46;16.50;99.90
31991;DHT22;18508;49.386;8.370;2022-10-24T08:13:15;16.50;99.90
31991;DHT22;18508;49.386;8.370;2022-10-24T08:15:44;16.50;99.90
31991;DHT22;18508;49.386;8.370;2022-10-24T08:18:13;16.60;99.90
31991;DHT22;18508;49.386;8.370;2022-10-24T08:20:41;16.60;99.90
31991;DHT22;18508;49.386;8.370;2022-10-24T08:23:12;16.70;99.90
31991;DHT22;18508;49.386;8.370;2022-10-24T08:25:41;16.70;99.90
31991;DHT22;18508;49.386;8.370;2022-10-24T08:28:09;16.90;99.90
31991;DHT22;18508;49.386;8.370;2022-10-24T08:30:39;16.70;99.90
31991;DHT22;18508;49.386;8.370;2022-10-24T08:33:10;16.70;99.90
31991;DHT22;18508;49.386;8.370;2022-10-24T08:35:45;17.10;99.90
31991;DHT22;18508;49.386;8.370;2022-10-24T08:38:16;16.80;99.90
31991;DHT22;18508;49.386;8.370;2022-10-24T08:40:46;16.80;99.90
31991;DHT22;18508;49.386;8.370;2022-10-24T08:43:17;16.70;99.90
31991;DHT22;18508;49.386;8.370;2022-10-24T08:45:54;16.90;99.90
31991;DHT22;18508;49.386;8.370;2022-10-24T08:48:30;17.00;99.90
31991;DHT22;18508;49.386;8.370;2022-10-24T08:51:05;16.90;99.90
31991;DHT22;18508;49.386;8.370;2022-10-24T08:53:35;16.90;99.90
31991;DHT22;18508;49.386;8.370;2022-10-24T08:56:07;16.90;99.90
31991;DHT22;18508;49.386;8.370;2022-10-24T08:58:40;16.90;99.90
31991;DHT22;18508;49.386;8.370;2022-10-24T09:01:25;16.90;99.90
31991;DHT22;18508;49.386;8.370;2022-10-24T09:04:03;17.00;99.90
31991;DHT22;18508;49.386;8.370;2022-10-24T09:06:32;17.00;99.90
31991;DHT22;18508;49.386;8.370;2022-10-24T09:09:08;17.10;99.90
31991;DHT22;18508;49.386;8.370;2022-10-24T09:11:43;17.20;99.90
31991;DHT22;18508;49.386;8.370;2022-10-24T09:14:17;17.30;99.90
31991;DHT22;18508;49.386;8.370;2022-10-24T09:16:50;17.30;99.90
31991;DHT22;18508;49.386;8.370;2022-10-24T09:19:26;17.20;99.90
31991;DHT22;18508;49.386;8.370;2022-10-24T09:22:05;17.20;99.90
31991;DHT22;18508;49.386;8.370;2022-10-24T09:24:40;17.30;99.90
31991;DHT22;18508;49.386;8.370;2022-10-24T09:27:13;17.20;99.90
31991;DHT22;18508;49.386;8.370;2022-10-24T09:29:43;17.30;99.90
31991;DHT22;18508;49.386;8.370;2022-10-24T09:32:14;17.40;99.90
31991;DHT22;18508;49.386;8.370;2022-10-24T09:34:46;17.60;99.90
31991;DHT22;18508;49.386;8.370;2022-10-24T09:37:37;17.80;99.90
31991;DHT22;18508;49.386;8.370;2022-10-24T09:40:20;17.90;99.90
31991;DHT22;18508;49.386;8.370;2022-10-24T09:42:55;18.00;99.90
31991;DHT22;18508;49.386;8.370;2022-10-24T09:45:39;18.10;99.90
31991;DHT22;18508;49.386;8.370;2022-10-24T09:48:18;18.00;99.90
31991;DHT22;18508;49.386;8.370;2022-10-24T09:50:55;18.00;99.90
31991;DHT22;18508;49.386;8.370;2022-10-24T09:53:27;17.90;99.90
31991;DHT22;18508;49.386;8.370;2022-10-24T09:56:00;17.90;99.90
31991;DHT22;18508;49.386;8.370;2022-10-24T09:58:33;17.80;99.90
31991;DHT22;18508;49.386;8.370;2022-10-24T10:01:04;17.60;99.90
31991;DHT22;18508;49.386;8.370;2022-10-24T10:03:35;17.90;99.90
31991;DHT22;18508;49.386;8.370;2022-10-24T10:06:14;17.80;99.90
31991;DHT22;18508;49.386;8.370;2022-10-24T10:08:49;17.70;99.90
31991;DHT22;18508;49.386;8.370;2022-10-24T10:11:24;17.70;99.90
31991;DHT22;18508;49.386;8.370;2022-10-24T10:13:53;17.70;99.90
31991;DHT22;18508;49.386;8.370;2022-10-24T10:16:24;17.70;99.90
31991;DHT22;18508;49.386;8.370;2022-10-24T10:19:01;17.70;99.90
31991;DHT22;18508;49.386;8.370;2022-10-24T10:21:52;17.70;99.90
31991;DHT22;18508;49.386;8.370;2022-10-24T10:24:26;17.70;99.90
31991;DHT22;18508;49.386;8.370;2022-10-24T10:27:21;17.70;99.90
31991;DHT22;18508;49.386;8.370;2022-10-24T10:30:07;17.80;99.90
31991;DHT22;18508;49.386;8.370;2022-10-24T10:33:03;17.90;99.90
31991;DHT22;18508;49.386;8.370;2022-10-24T10:35:41;17.90;99.90
31991;DHT22;18508;49.386;8.370;2022-10-24T10:41:25;18.10;99.90
31991;DHT22;18508;49.386;8.370;2022-10-24T10:44:04;18.20;99.90
31991;DHT22;18508;49.386;8.370;2022-10-24T10:46:43;18.40;99.90
31991;DHT22;18508;49.386;8.370;2022-10-24T10:49:19;18.50;99.90
31991;DHT22;18508;49.386;8.370;2022-10-24T10:51:56;18.60;99.90
31991;DHT22;18508;49.386;8.370;2022-10-24T10:54:41;18.80;99.90
31991;DHT22;18508;49.386;8.370;2022-10-24T10:57:19;19.00;99.90
31991;DHT22;18508;49.386;8.370;2022-10-24T10:59:59;19.20;99.90
31991;DHT22;18508;49.386;8.370;2022-10-24T11:03:00;19.10;99.90
31991;DHT22;18508;49.386;8.370;2022-10-24T11:05:51;19.00;99.90
31991;DHT22;18508;49.386;8.370;2022-10-24T11:08:37;18.90;99.90
31991;DHT22;18508;49.386;8.370;2022-10-24T11:11:15;19.20;99.90
31991;DHT22;18508;49.386;8.370;2022-10-24T11:13:48;19.30;99.90
31991;DHT22;18508;49.386;8.370;2022-10-24T11:16:24;19.80;99.90
31991;DHT22;18508;49.386;8.370;2022-10-24T11:19:01;19.70;99.90
31991;DHT22;18508;49.386;8.370;2022-10-24T11:21:33;19.80;99.90
31991;DHT22;18508;49.386;8.370;2022-10-24T11:24:04;19.80;99.90
31991;DHT22;18508;49.386;8.370;2022-10-24T11:26:44;20.00;99.90
31991;DHT22;18508;49.386;8.370;2022-10-24T11:29:18;20.20;99.90
31991;DHT22;18508;49.386;8.370;2022-10-24T11:31:51;20.00;99.90
31991;DHT22;18508;49.386;8.370;2022-10-24T11:34:26;20.00;99.90
31991;DHT22;18508;49.386;8.370;2022-10-24T11:37:02;20.20;99.90
31991;DHT22;18508;49.386;8.370;2022-10-24T11:39:38;19.90;99.90
31991;DHT22;18508;49.386;8.370;2022-10-24T11:42:13;20.20;99.90
31991;DHT22;18508;49.386;8.370;2022-10-24T11:44:52;19.90;99.90
31991;DHT22;18508;49.386;8.370;2022-10-24T11:50:38;20.40;99.90
31991;DHT22;18508;49.386;8.370;2022-10-24T11:53:41;20.80;99.90
31991;DHT22;18508;49.386;8.370;2022-10-24T11:56:15;21.20;99.90
31991;DHT22;18508;49.386;8.370;2022-10-24T11:58:58;21.10;99.90
31991;DHT22;18508;49.386;8.370;2022-10-24T12:02:22;21.40;99.90
31991;DHT22;18508;49.386;8.370;2022-10-24T12:08:23;21.50;99.90
31991;DHT22;18508;49.386;8.370;2022-10-24T12:11:27;20.90;99.90
31991;DHT22;18508;49.386;8.370;2022-10-24T12:14:34;21.30;99.90
31991;DHT22;18508;49.386;8.370;2022-10-24T12:17:46;21.30;99.90
31991;DHT22;18508;49.386;8.370;2022-10-24T12:20:22;21.30;99.90
31991;DHT22;18508;49.386;8.370;2022-10-24T12:22:52;21.10;99.90
31991;DHT22;18508;49.386;8.370;2022-10-24T12:25:27;20.90;99.90
31991;DHT22;18508;49.386;8.370;2022-10-24T12:27:58;20.90;99.90
31991;DHT22;18508;49.386;8.370;2022-10-24T12:30:32;21.80;99.90
31991;DHT22;18508;49.386;8.370;2022-10-24T12:33:10;21.10;99.90
31991;DHT22;18508;49.386;8.370;2022-10-24T12:35:56;21.00;99.90
31991;DHT22;18508;49.386;8.370;2022-10-24T12:39:02;21.00;99.90
31991;DHT22;18508;49.386;8.370;2022-10-24T12:41:39;21.00;99.90
31991;DHT22;18508;49.386;8.370;2022-10-24T12:48:23;21.10;99.90
31991;DHT22;18508;49.386;8.370;2022-10-24T12:51:09;21.20;99.90
31991;DHT22;18508;49.386;8.370;2022-10-24T12:54:16;21.30;99.90
31991;DHT22;18508;49.386;8.370;2022-10-24T12:57:20;21.00;99.90
31991;DHT22;18508;49.386;8.370;2022-10-24T12:59:51;20.90;99.90
31991;DHT22;18508;49.386;8.370;2022-10-24T13:08:28;21.30;99.90
31991;DHT22;18508;49.386;8.370;2022-10-24T13:11:09;21.30;99.90
31991;DHT22;18508;49.386;8.370;2022-10-24T13:16:59;21.60;99.90
31991;DHT22;18508;49.386;8.370;2022-10-24T13:19:38;21.40;99.90
31991;DHT22;18508;49.386;8.370;2022-10-24T13:22:26;21.20;99.90
31991;DHT22;18508;49.386;8.370;2022-10-24T13:24:56;21.10;99.90
31991;DHT22;18508;49.386;8.370;2022-10-24T13:27:28;21.00;99.90
31991;DHT22;18508;49.386;8.370;2022-10-24T13:32:48;20.90;99.90
31991;DHT22;18508;49.386;8.370;2022-10-24T13:35:23;20.90;99.90
31991;DHT22;18508;49.386;8.370;2022-10-24T13:37:54;20.80;99.90
31991;DHT22;18508;49.386;8.370;2022-10-24T13:40:29;20.80;99.90
31991;DHT22;18508;49.386;8.370;2022-10-24T13:43:02;20.70;99.90
31991;DHT22;18508;49.386;8.370;2022-10-24T13:45:44;20.80;99.90
31991;DHT22;18508;49.386;8.370;2022-10-24T13:48:16;20.80;99.90
31991;DHT22;18508;49.386;8.370;2022-10-24T13:50:48;20.70;99.90
31991;DHT22;18508;49.386;8.370;2022-10-24T13:53:22;20.80;99.90
31991;DHT22;18508;49.386;8.370;2022-10-24T13:56:08;20.80;99.90
31991;DHT22;18508;49.386;8.370;2022-10-24T13:58:40;20.80;99.90
31991;DHT22;18508;49.386;8.370;2022-10-24T14:01:16;21.00;99.90
31991;DHT22;18508;49.386;8.370;2022-10-24T14:03:50;21.20;99.90
31991;DHT22;18508;49.386;8.370;2022-10-24T14:06:37;21.30;99.90
31991;DHT22;18508;49.386;8.370;2022-10-24T14:09:16;21.70;99.90
31991;DHT22;18508;49.386;8.370;2022-10-24T14:11:54;21.90;99.90
31991;DHT22;18508;49.386;8.370;2022-10-24T14:14:27;21.80;99.90
31991;DHT22;18508;49.386;8.370;2022-10-24T14:17:17;21.80;99.90
31991;DHT22;18508;49.386;8.370;2022-10-24T14:19:51;21.70;99.90
31991;DHT22;18508;49.386;8.370;2022-10-24T14:22:25;21.60;99.30
31991;DHT22;18508;49.386;8.370;2022-10-24T14:24:57;21.50;99.70
31991;DHT22;18508;49.386;8.370;2022-10-24T14:27:26;21.60;98.90
31991;DHT22;18508;49.386;8.370;2022-10-24T14:29:59;21.50;99.90
31991;DHT22;18508;49.386;8.370;2022-10-24T14:32:29;21.40;99.90
31991;DHT22;18508;49.386;8.370;2022-10-24T14:34:59;21.20;99.90
31991;DHT22;18508;49.386;8.370;2022-10-24T14:37:34;21.30;99.90
31991;DHT22;18508;49.386;8.370;2022-10-24T14:40:09;21.00;99.90
31991;DHT22;18508;49.386;8.370;2022-10-24T14:42:39;20.90;99.90
31991;DHT22;18508;49.386;8.370;2022-10-24T14:45:22;20.70;99.90
31991;DHT22;18508;49.386;8.370;2022-10-24T14:47:58;20.60;99.90
31991;DHT22;18508;49.386;8.370;2022-10-24T14:50:36;20.50;99.90
31991;DHT22;18508;49.386;8.370;2022-10-24T14:53:21;20.50;99.90
31991;DHT22;18508;49.386;8.370;2022-10-24T14:55:54;20.40;99.90
31991;DHT22;18508;49.386;8.370;2022-10-24T14:58:25;20.40;99.90
31991;DHT22;18508;49.386;8.370;2022-10-24T15:00:55;20.30;99.90
31991;DHT22;18508;49.386;8.370;2022-10-24T15:03:24;20.30;99.90
31991;DHT22;18508;49.386;8.370;2022-10-24T15:05:58;20.20;99.90
31991;DHT22;18508;49.386;8.370;2022-10-24T15:08:35;20.10;99.90
31991;DHT22;18508;49.386;8.370;2022-10-24T15:11:15;20.20;99.90
31991;DHT22;18508;49.386;8.370;2022-10-24T15:13:46;20.20;99.90
31991;DHT22;18508;49.386;8.370;2022-10-24T15:16:34;20.40;99.90
31991;DHT22;18508;49.386;8.370;2022-10-24T15:19:08;20.70;99.90
31991;DHT22;18508;49.386;8.370;2022-10-24T15:21:42;21.00;99.90
31991;DHT22;18508;49.386;8.370;2022-10-24T15:24:19;20.80;99.90
31991;DHT22;18508;49.386;8.370;2022-10-24T15:26:50;20.60;99.90
31991;DHT22;18508;49.386;8.370;2022-10-24T15:29:20;20.30;99.90
31991;DHT22;18508;49.386;8.370;2022-10-24T15:31:50;20.10;99.90
31991;DHT22;18508;49.386;8.370;2022-10-24T15:34:21;19.80;99.90
31991;DHT22;18508;49.386;8.370;2022-10-24T15:36:51;19.60;99.90
31991;DHT22;18508;49.386;8.370;2022-10-24T15:39:22;19.40;99.90
31991;DHT22;18508;49.386;8.370;2022-10-24T15:41:53;19.30;99.90
31991;DHT22;18508;49.386;8.370;2022-10-24T15:44:24;19.10;99.90
31991;DHT22;18508;49.386;8.370;2022-10-24T15:46:59;19.00;99.90
31991;DHT22;18508;49.386;8.370;2022-10-24T15:49:36;18.10;99.90
31991;DHT22;18508;49.386;8.370;2022-10-24T15:52:06;19.10;99.90
31991;DHT22;18508;49.386;8.370;2022-10-24T15:54:37;18.70;99.90
31991;DHT22;18508;49.386;8.370;2022-10-24T15:57:11;18.50;99.90
31991;DHT22;18508;49.386;8.370;2022-10-24T15:59:40;18.70;99.90
31991;DHT22;18508;49.386;8.370;2022-10-24T16:02:14;18.60;99.90
31991;DHT22;18508;49.386;8.370;2022-10-24T16:04:45;18.60;99.90
31991;DHT22;18508;49.386;8.370;2022-10-24T16:07:14;18.40;99.90
31991;DHT22;18508;49.386;8.370;2022-10-24T16:09:44;18.40;99.90
31991;DHT22;18508;49.386;8.370;2022-10-24T16:12:16;18.40;99.90
31991;DHT22;18508;49.386;8.370;2022-10-24T16:14:46;18.30;99.90
31991;DHT22;18508;49.386;8.370;2022-10-24T16:17:14;18.20;99.90
31991;DHT22;18508;49.386;8.370;2022-10-24T16:19:42;18.20;99.90
31991;DHT22;18508;49.386;8.370;2022-10-24T16:22:11;18.10;99.90
31991;DHT22;18508;49.386;8.370;2022-10-24T16:24:42;18.10;99.90
31991;DHT22;18508;49.386;8.370;2022-10-24T16:27:10;19.10;99.90
31991;DHT22;18508;49.386;8.370;2022-10-24T16:29:40;18.00;99.90
31991;DHT22;18508;49.386;8.370;2022-10-24T16:32:09;17.90;99.90
31991;DHT22;18508;49.386;8.370;2022-10-24T16:34:38;17.80;99.90
31991;DHT22;18508;49.386;8.370;2022-10-24T16:37:07;17.80;99.90
31991;DHT22;18508;49.386;8.370;2022-10-24T16:39:37;17.70;99.90
31991;DHT22;18508;49.386;8.370;2022-10-24T16:42:06;17.60;99.90
31991;DHT22;18508;49.386;8.370;2022-10-24T16:44:35;17.60;99.90
31991;DHT22;18508;49.386;8.370;2022-10-24T16:47:06;17.50;99.90
31991;DHT22;18508;49.386;8.370;2022-10-24T16:49:35;17.50;99.90
31991;DHT22;18508;49.386;8.370;2022-10-24T16:52:04;17.40;99.90
31991;DHT22;18508;49.386;8.370;2022-10-24T16:54:33;17.80;99.90
31991;DHT22;18508;49.386;8.370;2022-10-24T16:57:01;17.30;99.90
31991;DHT22;18508;49.386;8.370;2022-10-24T16:59:29;17.30;99.90
31991;DHT22;18508;49.386;8.370;2022-10-24T17:01:58;17.60;99.90
31991;DHT22;18508;49.386;8.370;2022-10-24T17:04:30;17.20;99.90
31991;DHT22;18508;49.386;8.370;2022-10-24T17:07:00;17.20;99.90
31991;DHT22;18508;49.386;8.370;2022-10-24T17:09:31;17.20;99.90